sensor_id;sensor_type;location;lat;lon;timestamp;P1;durP1;ratioP1;P2;durP2;ratioP2
30133;SDS011;16946;49.984;10.672;2023-11-19T00:00:02;4.00;;;3.20;;
30133;SDS011;16946;49.984;10.672;2023-11-19T00:00:34;3.63;;;3.33;;
30133;SDS011;16946;49.984;10.672;2023-11-19T00:01:05;3.85;;;3.40;;
30133;SDS011;16946;49.984;10.672;2023-11-19T00:01:36;3.50;;;3.20;;
30133;SDS011;16946;49.984;10.672;2023-11-19T00:02:06;4.13;;;3.80;;
30133;SDS011;16946;49.984;10.672;2023-11-19T00:02:38;2.97;;;2.78;;
30133;SDS011;16946;49.984;10.672;2023-11-19T00:03:09;3.13;;;2.83;;
30133;SDS011;16946;49.984;10.672;2023-11-19T00:03:41;4.00;;;3.67;;
30133;SDS011;16946;49.984;10.672;2023-11-19T00:04:11;3.80;;;3.40;;
30133;SDS011;16946;49.984;10.672;2023-11-19T00:04:42;5.50;;;3.40;;
30133;SDS011;16946;49.984;10.672;2023-11-19T00:05:12;3.77;;;3.33;;
30133;SDS011;16946;49.984;10.672;2023-11-19T00:05:43;4.63;;;4.03;;
30133;SDS011;16946;49.984;10.672;2023-11-19T00:06:18;3.33;;;3.00;;
30133;SDS011;16946;49.984;10.672;2023-11-19T00:06:48;4.13;;;3.37;;
30133;SDS011;16946;49.984;10.672;2023-11-19T00:07:19;3.30;;;3.00;;
30133;SDS011;16946;49.984;10.672;2023-11-19T00:07:50;6.93;;;4.10;;
30133;SDS011;16946;49.984;10.672;2023-11-19T00:08:20;3.47;;;3.17;;
30133;SDS011;16946;49.984;10.672;2023-11-19T00:08:51;3.60;;;3.30;;
30133;SDS011;16946;49.984;10.672;2023-11-19T00:09:21;3.60;;;3.30;;
30133;SDS011;16946;49.984;10.672;2023-11-19T00:09:52;4.33;;;3.40;;
30133;SDS011;16946;49.984;10.672;2023-11-19T00:10:25;3.65;;;3.35;;
30133;SDS011;16946;49.984;10.672;2023-11-19T00:10:55;3.43;;;3.13;;
30133;SDS011;16946;49.984;10.672;2023-11-19T00:11:26;4.53;;;3.30;;
30133;SDS011;16946;49.984;10.672;2023-11-19T00:11:56;3.07;;;2.87;;
30133;SDS011;16946;49.984;10.672;2023-11-19T00:12:27;3.28;;;3.05;;
30133;SDS011;16946;49.984;10.672;2023-11-19T00:12:59;3.60;;;3.25;;
30133;SDS011;16946;49.984;10.672;2023-11-19T00:13:29;3.33;;;3.00;;
30133;SDS011;16946;49.984;10.672;2023-11-19T00:14:00;3.23;;;2.60;;
30133;SDS011;16946;49.984;10.672;2023-11-19T00:14:30;2.70;;;2.50;;
30133;SDS011;16946;49.984;10.672;2023-11-19T00:15:01;3.17;;;2.47;;
30133;SDS011;16946;49.984;10.672;2023-11-19T00:15:32;3.10;;;2.70;;
30133;SDS011;16946;49.984;10.672;2023-11-19T00:16:02;2.80;;;2.60;;
30133;SDS011;16946;49.984;10.672;2023-11-19T00:16:34;2.70;;;2.50;;
30133;SDS011;16946;49.984;10.672;2023-11-19T00:17:05;3.17;;;2.80;;
30133;SDS011;16946;49.984;10.672;2023-11-19T00:17:35;2.77;;;2.57;;
30133;SDS011;16946;49.984;10.672;2023-11-19T00:18:06;3.00;;;2.70;;
30133;SDS011;16946;49.984;10.672;2023-11-19T00:18:36;3.40;;;2.63;;
30133;SDS011;16946;49.984;10.672;2023-11-19T00:19:07;2.60;;;2.40;;
30133;SDS011;16946;49.984;10.672;2023-11-19T00:19:38;4.38;;;2.50;;
30133;SDS011;16946;49.984;10.672;2023-11-19T00:20:09;2.80;;;2.60;;
30133;SDS011;16946;49.984;10.672;2023-11-19T00:20:43;4.22;;;3.03;;
30133;SDS011;16946;49.984;10.672;2023-11-19T00:21:14;2.65;;;2.45;;
30133;SDS011;16946;49.984;10.672;2023-11-19T00:21:45;3.93;;;2.70;;
30133;SDS011;16946;49.984;10.672;2023-11-19T00:22:15;3.03;;;2.80;;
30133;SDS011;16946;49.984;10.672;2023-11-19T00:22:46;2.60;;;2.40;;
30133;SDS011;16946;49.984;10.672;2023-11-19T00:23:21;2.63;;;2.42;;
30133;SDS011;16946;49.984;10.672;2023-11-19T00:23:51;2.93;;;2.73;;
30133;SDS011;16946;49.984;10.672;2023-11-19T00:24:22;2.70;;;2.50;;
30133;SDS011;16946;49.984;10.672;2023-11-19T00:24:52;2.50;;;2.30;;
30133;SDS011;16946;49.984;10.672;2023-11-19T00:25:23;3.20;;;2.90;;
30133;SDS011;16946;49.984;10.672;2023-11-19T00:25:53;3.03;;;2.57;;
30133;SDS011;16946;49.984;10.672;2023-11-19T00:26:24;2.43;;;2.23;;
30133;SDS011;16946;49.984;10.672;2023-11-19T00:26:54;2.77;;;2.53;;
30133;SDS011;16946;49.984;10.672;2023-11-19T00:27:25;3.00;;;2.73;;
30133;SDS011;16946;49.984;10.672;2023-11-19T00:27:56;2.73;;;2.50;;
30133;SDS011;16946;49.984;10.672;2023-11-19T00:28:27;2.60;;;2.40;;
30133;SDS011;16946;49.984;10.672;2023-11-19T00:28:57;2.80;;;2.60;;
30133;SDS011;16946;49.984;10.672;2023-11-19T00:29:29;2.75;;;2.55;;
30133;SDS011;16946;49.984;10.672;2023-11-19T00:29:59;2.30;;;2.20;;
30133;SDS011;16946;49.984;10.672;2023-11-19T00:30:30;3.00;;;2.57;;
30133;SDS011;16946;49.984;10.672;2023-11-19T00:31:01;2.15;;;1.95;;
30133;SDS011;16946;49.984;10.672;2023-11-19T00:31:33;3.03;;;2.70;;
30133;SDS011;16946;49.984;10.672;2023-11-19T00:32:03;2.80;;;2.60;;
30133;SDS011;16946;49.984;10.672;2023-11-19T00:32:35;2.00;;;1.90;;
30133;SDS011;16946;49.984;10.672;2023-11-19T00:33:08;2.38;;;2.17;;
30133;SDS011;16946;49.984;10.672;2023-11-19T00:33:38;2.47;;;2.27;;
30133;SDS011;16946;49.984;10.672;2023-11-19T00:34:09;2.95;;;2.50;;
30133;SDS011;16946;49.984;10.672;2023-11-19T00:34:43;2.50;;;2.28;;
30133;SDS011;16946;49.984;10.672;2023-11-19T00:35:14;2.53;;;2.33;;
30133;SDS011;16946;49.984;10.672;2023-11-19T00:35:44;2.90;;;2.63;;
30133;SDS011;16946;49.984;10.672;2023-11-19T00:36:15;2.30;;;2.10;;
30133;SDS011;16946;49.984;10.672;2023-11-19T00:36:45;2.77;;;2.47;;
30133;SDS011;16946;49.984;10.672;2023-11-19T00:37:16;2.23;;;2.03;;
30133;SDS011;16946;49.984;10.672;2023-11-19T00:37:47;2.70;;;2.50;;
30133;SDS011;16946;49.984;10.672;2023-11-19T00:38:17;2.23;;;2.03;;
30133;SDS011;16946;49.984;10.672;2023-11-19T00:38:48;2.40;;;2.20;;
30133;SDS011;16946;49.984;10.672;2023-11-19T00:39:18;4.60;;;2.30;;
30133;SDS011;16946;49.984;10.672;2023-11-19T00:39:51;1.73;;;1.63;;
30133;SDS011;16946;49.984;10.672;2023-11-19T00:40:22;2.40;;;2.20;;
30133;SDS011;16946;49.984;10.672;2023-11-19T00:40:53;4.05;;;2.42;;
30133;SDS011;16946;49.984;10.672;2023-11-19T00:41:23;2.17;;;1.90;;
30133;SDS011;16946;49.984;10.672;2023-11-19T00:41:55;2.65;;;2.22;;
30133;SDS011;16946;49.984;10.672;2023-11-19T00:42:26;2.20;;;2.00;;
30133;SDS011;16946;49.984;10.672;2023-11-19T00:42:56;2.20;;;2.00;;
30133;SDS011;16946;49.984;10.672;2023-11-19T00:43:27;2.30;;;2.10;;
30133;SDS011;16946;49.984;10.672;2023-11-19T00:43:57;1.90;;;1.80;;
30133;SDS011;16946;49.984;10.672;2023-11-19T00:44:28;2.10;;;1.90;;
30133;SDS011;16946;49.984;10.672;2023-11-19T00:44:58;2.60;;;2.13;;
30133;SDS011;16946;49.984;10.672;2023-11-19T00:45:29;2.03;;;1.87;;
30133;SDS011;16946;49.984;10.672;2023-11-19T00:45:59;5.47;;;1.90;;
30133;SDS011;16946;49.984;10.672;2023-11-19T00:46:30;1.90;;;1.80;;
30133;SDS011;16946;49.984;10.672;2023-11-19T00:47:02;2.40;;;2.20;;
30133;SDS011;16946;49.984;10.672;2023-11-19T00:47:35;1.63;;;1.52;;
30133;SDS011;16946;49.984;10.672;2023-11-19T00:48:05;2.30;;;2.10;;
30133;SDS011;16946;49.984;10.672;2023-11-19T00:48:37;2.33;;;2.13;;
30133;SDS011;16946;49.984;10.672;2023-11-19T00:49:07;1.97;;;1.73;;
30133;SDS011;16946;49.984;10.672;2023-11-19T00:49:38;1.97;;;1.80;;
30133;SDS011;16946;49.984;10.672;2023-11-19T00:50:08;1.87;;;1.73;;
30133;SDS011;16946;49.984;10.672;2023-11-19T00:50:39;2.15;;;1.90;;
30133;SDS011;16946;49.984;10.672;2023-11-19T00:51:14;2.90;;;1.70;;
30133;SDS011;16946;49.984;10.672;2023-11-19T00:51:44;2.67;;;2.10;;
30133;SDS011;16946;49.984;10.672;2023-11-19T00:52:15;2.73;;;1.70;;
30133;SDS011;16946;49.984;10.672;2023-11-19T00:52:47;2.42;;;2.05;;
30133;SDS011;16946;49.984;10.672;2023-11-19T00:53:17;1.70;;;1.60;;
30133;SDS011;16946;49.984;10.672;2023-11-19T00:53:48;1.87;;;1.73;;
30133;SDS011;16946;49.984;10.672;2023-11-19T00:54:18;2.30;;;2.10;;
30133;SDS011;16946;49.984;10.672;2023-11-19T00:54:49;1.50;;;1.40;;
30133;SDS011;16946;49.984;10.672;2023-11-19T00:55:19;2.50;;;1.93;;
30133;SDS011;16946;49.984;10.672;2023-11-19T00:55:50;2.83;;;1.83;;
30133;SDS011;16946;49.984;10.672;2023-11-19T00:56:20;1.63;;;1.53;;
30133;SDS011;16946;49.984;10.672;2023-11-19T00:56:54;1.77;;;1.67;;
30133;SDS011;16946;49.984;10.672;2023-11-19T00:57:25;1.80;;;1.70;;
30133;SDS011;16946;49.984;10.672;2023-11-19T00:57:56;1.77;;;1.48;;
30133;SDS011;16946;49.984;10.672;2023-11-19T00:58:27;1.53;;;1.43;;
30133;SDS011;16946;49.984;10.672;2023-11-19T00:58:58;1.80;;;1.70;;
30133;SDS011;16946;49.984;10.672;2023-11-19T00:59:30;1.85;;;1.75;;
30133;SDS011;16946;49.984;10.672;2023-11-19T01:00:00;2.70;;;2.00;;
30133;SDS011;16946;49.984;10.672;2023-11-19T01:00:31;3.70;;;1.70;;
30133;SDS011;16946;49.984;10.672;2023-11-19T01:01:02;1.60;;;1.50;;
30133;SDS011;16946;49.984;10.672;2023-11-19T01:01:33;1.57;;;1.47;;
30133;SDS011;16946;49.984;10.672;2023-11-19T01:02:03;2.87;;;2.00;;
30133;SDS011;16946;49.984;10.672;2023-11-19T01:02:36;1.88;;;1.70;;
30133;SDS011;16946;49.984;10.672;2023-11-19T01:03:06;1.67;;;1.57;;
30133;SDS011;16946;49.984;10.672;2023-11-19T01:03:37;1.60;;;1.50;;
30133;SDS011;16946;49.984;10.672;2023-11-19T01:04:07;1.93;;;1.73;;
30133;SDS011;16946;49.984;10.672;2023-11-19T01:04:38;1.70;;;1.60;;
30133;SDS011;16946;49.984;10.672;2023-11-19T01:05:09;2.43;;;1.80;;
30133;SDS011;16946;49.984;10.672;2023-11-19T01:05:39;2.70;;;1.53;;
30133;SDS011;16946;49.984;10.672;2023-11-19T01:06:11;2.42;;;2.22;;
30133;SDS011;16946;49.984;10.672;2023-11-19T01:06:41;4.10;;;1.70;;
30133;SDS011;16946;49.984;10.672;2023-11-19T01:07:12;2.33;;;1.67;;
30133;SDS011;16946;49.984;10.672;2023-11-19T01:07:42;1.93;;;1.70;;
30133;SDS011;16946;49.984;10.672;2023-11-19T01:08:13;1.77;;;1.67;;
30133;SDS011;16946;49.984;10.672;2023-11-19T01:08:44;1.80;;;1.42;;
30133;SDS011;16946;49.984;10.672;2023-11-19T01:09:15;1.90;;;1.80;;
30133;SDS011;16946;49.984;10.672;2023-11-19T01:09:45;1.67;;;1.57;;
30133;SDS011;16946;49.984;10.672;2023-11-19T01:10:16;1.90;;;1.63;;
30133;SDS011;16946;49.984;10.672;2023-11-19T01:10:46;1.63;;;1.50;;
30133;SDS011;16946;49.984;10.672;2023-11-19T01:11:20;2.10;;;1.90;;
30133;SDS011;16946;49.984;10.672;2023-11-19T01:11:51;2.55;;;1.65;;
30133;SDS011;16946;49.984;10.672;2023-11-19T01:12:23;1.77;;;1.55;;
30133;SDS011;16946;49.984;10.672;2023-11-19T01:12:53;1.63;;;1.50;;
30133;SDS011;16946;49.984;10.672;2023-11-19T01:13:24;2.03;;;1.70;;
30133;SDS011;16946;49.984;10.672;2023-11-19T01:13:55;1.60;;;1.50;;
30133;SDS011;16946;49.984;10.672;2023-11-19T01:14:25;1.67;;;1.57;;
30133;SDS011;16946;49.984;10.672;2023-11-19T01:14:56;2.30;;;1.77;;
30133;SDS011;16946;49.984;10.672;2023-11-19T01:15:27;1.63;;;1.50;;
30133;SDS011;16946;49.984;10.672;2023-11-19T01:15:58;1.80;;;1.70;;
30133;SDS011;16946;49.984;10.672;2023-11-19T01:16:29;2.20;;;2.00;;
30133;SDS011;16946;49.984;10.672;2023-11-19T01:17:00;2.20;;;2.00;;
30133;SDS011;16946;49.984;10.672;2023-11-19T01:17:31;1.50;;;1.40;;
30133;SDS011;16946;49.984;10.672;2023-11-19T01:18:01;1.80;;;1.70;;
30133;SDS011;16946;49.984;10.672;2023-11-19T01:18:35;1.60;;;1.50;;
30133;SDS011;16946;49.984;10.672;2023-11-19T01:19:05;1.53;;;1.43;;
30133;SDS011;16946;49.984;10.672;2023-11-19T01:19:36;2.60;;;1.83;;
30133;SDS011;16946;49.984;10.672;2023-11-19T01:20:06;1.60;;;1.50;;
30133;SDS011;16946;49.984;10.672;2023-11-19T01:20:37;1.70;;;1.60;;
30133;SDS011;16946;49.984;10.672;2023-11-19T01:21:08;1.67;;;1.57;;
30133;SDS011;16946;49.984;10.672;2023-11-19T01:21:38;2.37;;;2.00;;
30133;SDS011;16946;49.984;10.672;2023-11-19T01:22:09;2.77;;;2.00;;
30133;SDS011;16946;49.984;10.672;2023-11-19T01:22:39;2.30;;;2.10;;
30133;SDS011;16946;49.984;10.672;2023-11-19T01:23:10;1.80;;;1.23;;
30133;SDS011;16946;49.984;10.672;2023-11-19T01:23:41;2.07;;;1.60;;
30133;SDS011;16946;49.984;10.672;2023-11-19T01:24:15;1.83;;;1.58;;
30133;SDS011;16946;49.984;10.672;2023-11-19T01:24:46;2.13;;;1.77;;
30133;SDS011;16946;49.984;10.672;2023-11-19T01:25:16;1.93;;;1.77;;
30133;SDS011;16946;49.984;10.672;2023-11-19T01:25:47;1.73;;;1.63;;
30133;SDS011;16946;49.984;10.672;2023-11-19T01:26:18;1.80;;;1.70;;
30133;SDS011;16946;49.984;10.672;2023-11-19T01:26:48;2.23;;;1.90;;
30133;SDS011;16946;49.984;10.672;2023-11-19T01:27:19;2.07;;;1.87;;
30133;SDS011;16946;49.984;10.672;2023-11-19T01:27:50;2.37;;;2.00;;
30133;SDS011;16946;49.984;10.672;2023-11-19T01:28:20;1.93;;;1.43;;
30133;SDS011;16946;49.984;10.672;2023-11-19T01:28:51;2.13;;;1.93;;
30133;SDS011;16946;49.984;10.672;2023-11-19T01:29:22;1.63;;;1.52;;
30133;SDS011;16946;49.984;10.672;2023-11-19T01:29:53;2.00;;;1.80;;
30133;SDS011;16946;49.984;10.672;2023-11-19T01:30:24;2.20;;;2.00;;
30133;SDS011;16946;49.984;10.672;2023-11-19T01:30:55;2.23;;;2.03;;
30133;SDS011;16946;49.984;10.672;2023-11-19T01:31:26;2.30;;;2.10;;
30133;SDS011;16946;49.984;10.672;2023-11-19T01:31:56;1.83;;;1.73;;
30133;SDS011;16946;49.984;10.672;2023-11-19T01:32:27;2.77;;;2.40;;
30133;SDS011;16946;49.984;10.672;2023-11-19T01:32:57;3.13;;;2.80;;
30133;SDS011;16946;49.984;10.672;2023-11-19T01:33:28;2.63;;;2.33;;
30133;SDS011;16946;49.984;10.672;2023-11-19T01:33:58;2.33;;;2.13;;
30133;SDS011;16946;49.984;10.672;2023-11-19T01:34:29;2.27;;;2.07;;
30133;SDS011;16946;49.984;10.672;2023-11-19T01:34:59;2.03;;;1.87;;
30133;SDS011;16946;49.984;10.672;2023-11-19T01:35:31;1.90;;;1.80;;
30133;SDS011;16946;49.984;10.672;2023-11-19T01:36:01;2.87;;;2.00;;
30133;SDS011;16946;49.984;10.672;2023-11-19T01:36:32;2.03;;;1.83;;
30133;SDS011;16946;49.984;10.672;2023-11-19T01:37:02;1.77;;;1.67;;
30133;SDS011;16946;49.984;10.672;2023-11-19T01:37:33;1.70;;;1.60;;
30133;SDS011;16946;49.984;10.672;2023-11-19T01:38:06;2.05;;;1.90;;
30133;SDS011;16946;49.984;10.672;2023-11-19T01:38:38;3.58;;;2.45;;
30133;SDS011;16946;49.984;10.672;2023-11-19T01:39:09;2.83;;;2.20;;
30133;SDS011;16946;49.984;10.672;2023-11-19T01:39:39;2.37;;;2.17;;
30133;SDS011;16946;49.984;10.672;2023-11-19T01:40:10;1.83;;;1.73;;
30133;SDS011;16946;49.984;10.672;2023-11-19T01:40:41;2.53;;;2.30;;
30133;SDS011;16946;49.984;10.672;2023-11-19T01:41:12;2.30;;;2.10;;
30133;SDS011;16946;49.984;10.672;2023-11-19T01:41:42;2.77;;;2.50;;
30133;SDS011;16946;49.984;10.672;2023-11-19T01:42:13;2.20;;;2.00;;
30133;SDS011;16946;49.984;10.672;2023-11-19T01:42:43;2.60;;;2.37;;
30133;SDS011;16946;49.984;10.672;2023-11-19T01:43:30;1.93;;;1.83;;
30133;SDS011;16946;49.984;10.672;2023-11-19T01:44:03;2.47;;;2.28;;
30133;SDS011;16946;49.984;10.672;2023-11-19T01:44:35;2.40;;;2.20;;
30133;SDS011;16946;49.984;10.672;2023-11-19T01:45:06;2.80;;;2.13;;
30133;SDS011;16946;49.984;10.672;2023-11-19T01:45:38;2.08;;;1.98;;
30133;SDS011;16946;49.984;10.672;2023-11-19T01:46:09;2.40;;;2.20;;
30133;SDS011;16946;49.984;10.672;2023-11-19T01:46:41;3.20;;;2.80;;
30133;SDS011;16946;49.984;10.672;2023-11-19T01:47:13;2.33;;;2.08;;
30133;SDS011;16946;49.984;10.672;2023-11-19T01:47:44;2.40;;;2.20;;
30133;SDS011;16946;49.984;10.672;2023-11-19T01:48:15;2.53;;;2.33;;
30133;SDS011;16946;49.984;10.672;2023-11-19T01:48:46;2.40;;;2.20;;
30133;SDS011;16946;49.984;10.672;2023-11-19T01:49:17;2.20;;;2.00;;
30133;SDS011;16946;49.984;10.672;2023-11-19T01:49:48;2.47;;;2.13;;
30133;SDS011;16946;49.984;10.672;2023-11-19T01:50:19;2.15;;;1.95;;
30133;SDS011;16946;49.984;10.672;2023-11-19T01:50:50;1.90;;;1.80;;
30133;SDS011;16946;49.984;10.672;2023-11-19T01:51:22;2.40;;;2.20;;
30133;SDS011;16946;49.984;10.672;2023-11-19T01:51:52;2.30;;;2.10;;
30133;SDS011;16946;49.984;10.672;2023-11-19T01:52:23;2.50;;;2.30;;
30133;SDS011;16946;49.984;10.672;2023-11-19T01:52:55;2.40;;;2.20;;
30133;SDS011;16946;49.984;10.672;2023-11-19T01:53:29;2.38;;;2.17;;
30133;SDS011;16946;49.984;10.672;2023-11-19T01:54:01;2.70;;;2.50;;
30133;SDS011;16946;49.984;10.672;2023-11-19T01:54:31;2.75;;;2.50;;
30133;SDS011;16946;49.984;10.672;2023-11-19T01:55:03;3.95;;;2.53;;
30133;SDS011;16946;49.984;10.672;2023-11-19T01:55:34;2.83;;;2.63;;
30133;SDS011;16946;49.984;10.672;2023-11-19T01:56:05;2.73;;;2.53;;
30133;SDS011;16946;49.984;10.672;2023-11-19T01:56:39;2.63;;;2.42;;
30133;SDS011;16946;49.984;10.672;2023-11-19T01:57:11;3.05;;;2.78;;
30133;SDS011;16946;49.984;10.672;2023-11-19T01:57:42;2.70;;;2.58;;
30133;SDS011;16946;49.984;10.672;2023-11-19T01:58:12;2.33;;;2.20;;
30133;SDS011;16946;49.984;10.672;2023-11-19T01:58:43;2.67;;;2.47;;
30133;SDS011;16946;49.984;10.672;2023-11-19T01:59:15;3.47;;;3.17;;
30133;SDS011;16946;49.984;10.672;2023-11-19T01:59:46;2.97;;;2.33;;
30133;SDS011;16946;49.984;10.672;2023-11-19T02:00:17;2.57;;;2.37;;
30133;SDS011;16946;49.984;10.672;2023-11-19T02:00:49;2.83;;;2.63;;
30133;SDS011;16946;49.984;10.672;2023-11-19T02:01:20;2.73;;;2.53;;
30133;SDS011;16946;49.984;10.672;2023-11-19T02:01:50;2.97;;;2.77;;
30133;SDS011;16946;49.984;10.672;2023-11-19T02:02:21;2.43;;;2.30;;
30133;SDS011;16946;49.984;10.672;2023-11-19T02:02:52;2.83;;;2.57;;
30133;SDS011;16946;49.984;10.672;2023-11-19T02:03:22;3.40;;;3.20;;
30133;SDS011;16946;49.984;10.672;2023-11-19T02:03:56;3.22;;;2.75;;
30133;SDS011;16946;49.984;10.672;2023-11-19T02:04:28;3.28;;;2.70;;
30133;SDS011;16946;49.984;10.672;2023-11-19T02:04:58;2.40;;;2.20;;
30133;SDS011;16946;49.984;10.672;2023-11-19T02:05:30;3.15;;;2.88;;
30133;SDS011;16946;49.984;10.672;2023-11-19T02:06:02;3.70;;;2.60;;
30133;SDS011;16946;49.984;10.672;2023-11-19T02:06:34;2.88;;;2.50;;
30133;SDS011;16946;49.984;10.672;2023-11-19T02:07:09;2.78;;;2.47;;
30133;SDS011;16946;49.984;10.672;2023-11-19T02:07:40;2.60;;;2.23;;
30133;SDS011;16946;49.984;10.672;2023-11-19T02:08:10;2.40;;;2.30;;
30133;SDS011;16946;49.984;10.672;2023-11-19T02:08:43;6.00;;;2.40;;
30133;SDS011;16946;49.984;10.672;2023-11-19T02:09:14;3.07;;;2.80;;
30133;SDS011;16946;49.984;10.672;2023-11-19T02:09:44;3.13;;;2.80;;
30133;SDS011;16946;49.984;10.672;2023-11-19T02:10:15;7.57;;;2.53;;
30133;SDS011;16946;49.984;10.672;2023-11-19T02:10:46;2.83;;;2.63;;
30133;SDS011;16946;49.984;10.672;2023-11-19T02:11:17;3.03;;;2.83;;
30133;SDS011;16946;49.984;10.672;2023-11-19T02:11:48;2.57;;;2.37;;
30133;SDS011;16946;49.984;10.672;2023-11-19T02:12:21;2.95;;;2.50;;
30133;SDS011;16946;49.984;10.672;2023-11-19T02:12:51;2.70;;;2.43;;
30133;SDS011;16946;49.984;10.672;2023-11-19T02:13:22;3.07;;;2.80;;
30133;SDS011;16946;49.984;10.672;2023-11-19T02:13:55;2.60;;;2.40;;
30133;SDS011;16946;49.984;10.672;2023-11-19T02:14:27;2.92;;;2.72;;
30133;SDS011;16946;49.984;10.672;2023-11-19T02:14:58;3.15;;;2.80;;
30133;SDS011;16946;49.984;10.672;2023-11-19T02:15:29;2.20;;;2.07;;
30133;SDS011;16946;49.984;10.672;2023-11-19T02:15:59;2.60;;;2.40;;
30133;SDS011;16946;49.984;10.672;2023-11-19T02:16:32;4.40;;;2.60;;
30133;SDS011;16946;49.984;10.672;2023-11-19T02:17:02;2.50;;;2.30;;
30133;SDS011;16946;49.984;10.672;2023-11-19T02:17:33;2.47;;;2.28;;
30133;SDS011;16946;49.984;10.672;2023-11-19T02:18:43;2.22;;;2.03;;
30133;SDS011;16946;49.984;10.672;2023-11-19T02:19:06;2.20;;;2.00;;
30133;SDS011;16946;49.984;10.672;2023-11-19T02:19:38;4.05;;;2.15;;
30133;SDS011;16946;49.984;10.672;2023-11-19T02:20:08;2.50;;;2.30;;
30133;SDS011;16946;49.984;10.672;2023-11-19T02:20:41;2.25;;;2.05;;
30133;SDS011;16946;49.984;10.672;2023-11-19T02:21:12;2.80;;;2.60;;
30133;SDS011;16946;49.984;10.672;2023-11-19T02:21:44;2.70;;;2.50;;
30133;SDS011;16946;49.984;10.672;2023-11-19T02:22:15;3.30;;;2.67;;
30133;SDS011;16946;49.984;10.672;2023-11-19T02:22:48;2.83;;;2.63;;
30133;SDS011;16946;49.984;10.672;2023-11-19T02:23:20;2.55;;;2.33;;
30133;SDS011;16946;49.984;10.672;2023-11-19T02:23:51;2.95;;;2.30;;
30133;SDS011;16946;49.984;10.672;2023-11-19T02:24:22;3.08;;;2.30;;
30133;SDS011;16946;49.984;10.672;2023-11-19T02:24:58;2.00;;;1.90;;
30133;SDS011;16946;49.984;10.672;2023-11-19T02:25:32;2.58;;;2.38;;
30133;SDS011;16946;49.984;10.672;2023-11-19T02:27:00;2.55;;;2.35;;
30133;SDS011;16946;49.984;10.672;2023-11-19T02:27:51;2.58;;;2.38;;
30133;SDS011;16946;49.984;10.672;2023-11-19T02:28:27;3.70;;;2.75;;
30133;SDS011;16946;49.984;10.672;2023-11-19T02:28:57;2.50;;;2.30;;
30133;SDS011;16946;49.984;10.672;2023-11-19T02:29:28;2.43;;;2.23;;
30133;SDS011;16946;49.984;10.672;2023-11-19T02:29:59;2.07;;;1.97;;
30133;SDS011;16946;49.984;10.672;2023-11-19T02:30:30;2.70;;;2.50;;
30133;SDS011;16946;49.984;10.672;2023-11-19T02:31:02;2.38;;;2.17;;
30133;SDS011;16946;49.984;10.672;2023-11-19T02:31:34;2.25;;;2.15;;
30133;SDS011;16946;49.984;10.672;2023-11-19T02:32:06;2.40;;;2.20;;
30133;SDS011;16946;49.984;10.672;2023-11-19T02:32:39;2.47;;;2.28;;
30133;SDS011;16946;49.984;10.672;2023-11-19T02:33:11;2.50;;;2.30;;
30133;SDS011;16946;49.984;10.672;2023-11-19T02:33:42;2.70;;;2.50;;
30133;SDS011;16946;49.984;10.672;2023-11-19T02:34:13;2.50;;;2.30;;
30133;SDS011;16946;49.984;10.672;2023-11-19T02:34:43;2.73;;;2.53;;
30133;SDS011;16946;49.984;10.672;2023-11-19T02:35:14;3.23;;;2.50;;
30133;SDS011;16946;49.984;10.672;2023-11-19T02:35:44;2.50;;;2.30;;
30133;SDS011;16946;49.984;10.672;2023-11-19T02:36:15;2.65;;;2.45;;
30133;SDS011;16946;49.984;10.672;2023-11-19T02:36:47;2.88;;;2.67;;
30133;SDS011;16946;49.984;10.672;2023-11-19T02:37:17;4.97;;;2.67;;
30133;SDS011;16946;49.984;10.672;2023-11-19T02:37:49;2.50;;;2.30;;
30133;SDS011;16946;49.984;10.672;2023-11-19T02:38:19;3.40;;;2.43;;
30133;SDS011;16946;49.984;10.672;2023-11-19T02:38:51;2.92;;;2.72;;
30133;SDS011;16946;49.984;10.672;2023-11-19T02:39:22;2.57;;;2.37;;
30133;SDS011;16946;49.984;10.672;2023-11-19T02:39:52;2.40;;;2.07;;
30133;SDS011;16946;49.984;10.672;2023-11-19T02:40:23;2.90;;;2.70;;
30133;SDS011;16946;49.984;10.672;2023-11-19T02:40:54;2.40;;;2.20;;
30133;SDS011;16946;49.984;10.672;2023-11-19T02:41:25;2.50;;;2.30;;
30133;SDS011;16946;49.984;10.672;2023-11-19T02:41:55;3.30;;;2.80;;
30133;SDS011;16946;49.984;10.672;2023-11-19T02:42:26;2.93;;;2.73;;
30133;SDS011;16946;49.984;10.672;2023-11-19T02:42:57;2.45;;;2.22;;
30133;SDS011;16946;49.984;10.672;2023-11-19T02:43:28;3.10;;;2.80;;
30133;SDS011;16946;49.984;10.672;2023-11-19T02:44:01;3.03;;;2.72;;
30133;SDS011;16946;49.984;10.672;2023-11-19T02:44:31;2.43;;;2.23;;
30133;SDS011;16946;49.984;10.672;2023-11-19T02:45:02;3.40;;;3.10;;
30133;SDS011;16946;49.984;10.672;2023-11-19T02:45:36;2.50;;;2.30;;
30133;SDS011;16946;49.984;10.672;2023-11-19T02:46:06;3.07;;;2.83;;
30133;SDS011;16946;49.984;10.672;2023-11-19T02:46:37;2.77;;;2.57;;
30133;SDS011;16946;49.984;10.672;2023-11-19T02:47:07;3.10;;;2.80;;
30133;SDS011;16946;49.984;10.672;2023-11-19T02:47:38;3.73;;;2.87;;
30133;SDS011;16946;49.984;10.672;2023-11-19T02:48:08;2.43;;;2.23;;
30133;SDS011;16946;49.984;10.672;2023-11-19T02:48:39;2.90;;;2.70;;
30133;SDS011;16946;49.984;10.672;2023-11-19T02:49:10;2.77;;;2.57;;
30133;SDS011;16946;49.984;10.672;2023-11-19T02:49:40;3.40;;;3.13;;
30133;SDS011;16946;49.984;10.672;2023-11-19T02:50:13;3.00;;;2.55;;
30133;SDS011;16946;49.984;10.672;2023-11-19T02:50:44;3.22;;;2.95;;
30133;SDS011;16946;49.984;10.672;2023-11-19T02:51:15;3.20;;;2.90;;
30133;SDS011;16946;49.984;10.672;2023-11-19T02:51:46;3.57;;;3.20;;
30133;SDS011;16946;49.984;10.672;2023-11-19T02:52:16;3.60;;;3.30;;
30133;SDS011;16946;49.984;10.672;2023-11-19T02:52:47;3.23;;;2.93;;
30133;SDS011;16946;49.984;10.672;2023-11-19T02:53:18;3.00;;;2.70;;
30133;SDS011;16946;49.984;10.672;2023-11-19T02:53:52;2.78;;;2.58;;
30133;SDS011;16946;49.984;10.672;2023-11-19T02:54:22;4.90;;;3.00;;
30133;SDS011;16946;49.984;10.672;2023-11-19T02:54:57;3.40;;;2.42;;
30133;SDS011;16946;49.984;10.672;2023-11-19T02:55:27;2.47;;;2.27;;
30133;SDS011;16946;49.984;10.672;2023-11-19T02:56:00;2.55;;;2.35;;
30133;SDS011;16946;49.984;10.672;2023-11-19T02:56:36;3.10;;;2.90;;
30133;SDS011;16946;49.984;10.672;2023-11-19T02:57:09;2.60;;;2.40;;
30133;SDS011;16946;49.984;10.672;2023-11-19T02:57:40;2.95;;;2.65;;
30133;SDS011;16946;49.984;10.672;2023-11-19T02:58:20;3.40;;;2.60;;
30133;SDS011;16946;49.984;10.672;2023-11-19T02:58:53;2.85;;;2.65;;
30133;SDS011;16946;49.984;10.672;2023-11-19T02:59:24;2.60;;;2.37;;
30133;SDS011;16946;49.984;10.672;2023-11-19T02:59:57;2.58;;;2.38;;
30133;SDS011;16946;49.984;10.672;2023-11-19T03:00:28;2.47;;;2.27;;
30133;SDS011;16946;49.984;10.672;2023-11-19T03:01:05;2.80;;;2.60;;
30133;SDS011;16946;49.984;10.672;2023-11-19T03:01:42;2.38;;;2.17;;
30133;SDS011;16946;49.984;10.672;2023-11-19T03:02:18;2.80;;;2.60;;
30133;SDS011;16946;49.984;10.672;2023-11-19T03:02:49;2.40;;;2.20;;
30133;SDS011;16946;49.984;10.672;2023-11-19T03:03:28;2.53;;;2.33;;
30133;SDS011;16946;49.984;10.672;2023-11-19T03:04:07;1.95;;;1.85;;
30133;SDS011;16946;49.984;10.672;2023-11-19T03:04:41;2.58;;;2.38;;
30133;SDS011;16946;49.984;10.672;2023-11-19T03:05:15;2.03;;;1.80;;
30133;SDS011;16946;49.984;10.672;2023-11-19T03:05:46;2.90;;;2.70;;
30133;SDS011;16946;49.984;10.672;2023-11-19T03:06:17;2.53;;;2.30;;
30133;SDS011;16946;49.984;10.672;2023-11-19T03:06:48;2.60;;;2.40;;
30133;SDS011;16946;49.984;10.672;2023-11-19T03:07:19;2.03;;;1.83;;